createdAt,value
2017-12-21T00:00:43.728Z,17.27
2017-12-21T00:03:11.435Z,17.93
2017-12-21T00:05:39.237Z,17.37
2017-12-21T00:08:07.119Z,18.30
2017-12-21T00:10:35.647Z,16.53
2017-12-21T00:13:03.159Z,16.57
2017-12-21T00:15:30.867Z,15.87
2017-12-21T00:17:58.382Z,15.80
2017-12-21T00:20:26.086Z,15.63
2017-12-21T00:22:53.588Z,14.53
2017-12-21T00:25:21.911Z,13.80
2017-12-21T00:27:49.687Z,14.63
2017-12-21T00:30:17.182Z,18.00
2017-12-21T00:32:44.907Z,16.97
2017-12-21T00:35:12.407Z,16.07
2017-12-21T00:37:39.924Z,17.93
2017-12-21T00:40:07.587Z,16.70
2017-12-21T00:42:36.306Z,13.50
2017-12-21T00:45:03.806Z,17.30
2017-12-21T00:47:31.307Z,15.60
2017-12-21T00:49:59.522Z,15.27
2017-12-21T00:52:27.832Z,15.73
2017-12-21T00:54:55.358Z,14.70
2017-12-21T00:57:23.164Z,15.17
2017-12-21T00:59:50.924Z,14.27
2017-12-21T01:02:18.692Z,11.53
2017-12-21T01:04:46.298Z,11.60
2017-12-21T01:07:15.452Z,12.10
2017-12-21T01:09:44.672Z,12.67
2017-12-21T01:12:12.199Z,9.43
2017-12-21T01:14:40.584Z,11.00
2017-12-21T01:17:08.628Z,13.33
2017-12-21T01:19:36.132Z,11.20
2017-12-21T01:22:04.543Z,11.00
2017-12-21T01:24:32.159Z,10.87
2017-12-21T01:27:00.424Z,9.67
2017-12-21T01:29:28.363Z,10.53
2017-12-21T01:31:56.243Z,10.50
2017-12-21T01:34:24.253Z,10.23
2017-12-21T01:36:51.992Z,8.43
2017-12-21T01:39:20.048Z,11.17
2017-12-21T01:41:47.547Z,10.57
2017-12-21T01:44:15.059Z,10.87
2017-12-21T01:46:43.038Z,10.23
2017-12-21T01:49:11.075Z,11.23
2017-12-21T01:51:38.568Z,9.37
2017-12-21T01:54:06.076Z,10.80
2017-12-21T01:56:34.271Z,11.43
2017-12-21T01:59:01.795Z,9.60
2017-12-21T02:01:29.295Z,9.83
2017-12-21T02:03:56.800Z,10.73
2017-12-21T02:06:24.309Z,10.00
2017-12-21T02:08:52.955Z,9.00
2017-12-21T02:11:20.671Z,10.53
2017-12-21T02:13:48.435Z,9.10
2017-12-21T02:16:16.215Z,10.20
2017-12-21T02:18:43.967Z,9.90
2017-12-21T02:21:11.475Z,11.20
2017-12-21T02:23:38.972Z,9.07
2017-12-21T02:26:06.640Z,10.27
2017-12-21T02:28:35.420Z,9.93
2017-12-21T02:31:02.927Z,10.53
2017-12-21T02:33:30.860Z,11.47
2017-12-21T02:35:58.616Z,9.93
2017-12-21T02:38:26.511Z,10.70
2017-12-21T02:40:54.145Z,10.10
2017-12-21T02:43:21.914Z,11.07
2017-12-21T02:45:49.420Z,12.13
2017-12-21T02:48:17.145Z,11.33
2017-12-21T02:50:45.415Z,10.17
2017-12-21T02:53:12.965Z,11.40
2017-12-21T02:55:40.730Z,10.40
2017-12-21T02:58:08.497Z,10.40
2017-12-21T03:00:36.442Z,10.53
2017-12-21T03:03:03.945Z,10.90
2017-12-21T03:05:31.436Z,11.30
2017-12-21T03:07:59.236Z,10.10
2017-12-21T03:10:27.004Z,11.80
2017-12-21T03:12:54.515Z,10.97
2017-12-21T03:15:22.023Z,11.27
2017-12-21T03:17:49.629Z,11.37
2017-12-21T03:20:17.124Z,10.50
2017-12-21T03:22:44.637Z,8.73
2017-12-21T03:25:12.135Z,9.50
2017-12-21T03:27:39.808Z,11.03
2017-12-21T03:30:07.308Z,11.87
2017-12-21T03:32:34.824Z,11.27
2017-12-21T03:35:03.415Z,10.77
2017-12-21T03:37:31.475Z,9.30
2017-12-21T03:39:58.980Z,9.97
2017-12-21T03:42:27.312Z,9.43
2017-12-21T03:44:55.172Z,9.40
2017-12-21T03:47:23.444Z,8.50
2017-12-21T03:49:50.950Z,9.27
2017-12-21T03:52:18.461Z,8.67
2017-12-21T03:54:47.102Z,8.53
2017-12-21T03:57:14.888Z,7.87
2017-12-21T03:59:42.390Z,8.10
2017-12-21T04:02:09.893Z,8.37
2017-12-21T04:04:37.496Z,8.00
2017-12-21T04:07:05.256Z,7.90
2017-12-21T04:09:33.612Z,8.33
2017-12-21T04:12:01.986Z,7.77
2017-12-21T04:14:29.776Z,9.13
2017-12-21T04:16:57.666Z,7.37
2017-12-21T04:19:25.175Z,8.60
2017-12-21T04:21:52.755Z,9.20
2017-12-21T04:24:20.260Z,8.57
2017-12-21T04:26:48.650Z,7.87
2017-12-21T04:29:16.348Z,9.60
2017-12-21T04:31:44.494Z,8.40
2017-12-21T04:34:12.007Z,9.43
2017-12-21T04:36:39.616Z,9.47
2017-12-21T04:39:07.411Z,9.23
2017-12-21T04:41:35.175Z,9.00
2017-12-21T04:44:02.678Z,9.10
2017-12-21T04:46:30.185Z,10.00
2017-12-21T04:48:57.728Z,9.80
2017-12-21T04:51:25.316Z,10.67
2017-12-21T04:53:52.816Z,12.30
2017-12-21T04:56:20.840Z,11.40
2017-12-21T04:58:48.382Z,11.60
2017-12-21T05:01:16.062Z,12.23
2017-12-21T05:03:44.031Z,10.73
2017-12-21T05:06:11.887Z,11.27
2017-12-21T05:08:39.391Z,11.50
2017-12-21T05:11:07.394Z,11.33
2017-12-21T05:13:34.896Z,12.33
2017-12-21T05:16:02.405Z,10.53
2017-12-21T05:18:30.055Z,12.20
2017-12-21T05:20:57.854Z,11.00
2017-12-21T05:23:25.927Z,11.83
2017-12-21T05:25:53.456Z,11.80
2017-12-21T05:28:21.148Z,12.57
2017-12-21T05:30:48.648Z,13.53
2017-12-21T05:33:16.988Z,11.03
2017-12-21T05:35:44.483Z,12.77
2017-12-21T05:38:12.523Z,10.50
2017-12-21T05:40:40.888Z,14.03
2017-12-21T05:43:08.652Z,11.47
2017-12-21T05:45:37.193Z,14.03
2017-12-21T05:48:04.772Z,13.40
2017-12-21T05:50:32.555Z,13.60
2017-12-21T05:53:00.070Z,12.80
2017-12-21T05:55:27.963Z,12.10
2017-12-21T05:57:55.544Z,13.03
2017-12-21T06:00:23.303Z,14.27
2017-12-21T06:02:51.124Z,15.10
2017-12-21T06:05:18.827Z,14.60
2017-12-21T06:07:46.330Z,14.13
2017-12-21T06:10:14.664Z,14.17
2017-12-21T06:12:42.187Z,15.37
2017-12-21T06:15:10.104Z,15.53
2017-12-21T06:17:37.623Z,15.37
2017-12-21T06:20:05.115Z,13.87
2017-12-21T06:22:32.628Z,16.10
2017-12-21T06:25:00.307Z,13.07
2017-12-21T06:27:28.667Z,14.53
2017-12-21T06:29:56.173Z,16.83
2017-12-21T06:32:23.668Z,12.77
2017-12-21T06:34:51.180Z,14.63
2017-12-21T06:37:18.835Z,17.03
2017-12-21T06:39:46.598Z,14.10
2017-12-21T06:42:14.099Z,12.80
2017-12-21T06:44:41.750Z,11.17
2017-12-21T06:47:10.175Z,12.37
2017-12-21T06:49:37.684Z,12.53
2017-12-21T06:52:08.404Z,11.30
2017-12-21T06:54:36.232Z,11.63
2017-12-21T06:57:03.737Z,11.40
2017-12-21T06:59:31.242Z,12.30
2017-12-21T07:01:58.907Z,13.47
2017-12-21T07:04:26.879Z,11.83
2017-12-21T07:06:54.794Z,13.33
2017-12-21T07:09:22.303Z,11.63
2017-12-21T07:11:49.798Z,12.87
2017-12-21T07:14:17.715Z,15.43
2017-12-21T07:16:45.613Z,15.97
2017-12-21T07:19:13.903Z,16.80
2017-12-21T07:21:42.180Z,19.80
2017-12-21T07:24:09.680Z,19.50
2017-12-21T07:26:37.484Z,19.40
2017-12-21T07:29:05.251Z,21.53
2017-12-21T07:31:33.028Z,20.00
2017-12-21T07:34:00.535Z,24.40
2017-12-21T07:36:28.231Z,23.60
2017-12-21T07:38:56.908Z,20.87
2017-12-21T07:41:24.828Z,22.23
2017-12-21T07:43:53.367Z,21.10
2017-12-21T07:46:20.888Z,20.50
2017-12-21T07:48:48.881Z,20.90
2017-12-21T07:51:16.646Z,20.47
2017-12-21T07:53:44.144Z,19.83
2017-12-21T07:56:11.863Z,15.30
2017-12-21T07:58:39.366Z,12.83
2017-12-21T08:01:06.974Z,10.37
2017-12-21T08:03:35.480Z,11.07
2017-12-21T08:06:02.993Z,10.80
2017-12-21T08:08:30.658Z,11.53
2017-12-21T08:10:58.166Z,11.10
2017-12-21T08:13:25.669Z,11.87
2017-12-21T08:15:53.359Z,10.63
2017-12-21T08:18:20.867Z,12.13
2017-12-21T08:20:48.607Z,11.00
2017-12-21T08:23:16.356Z,10.63
2017-12-21T08:25:43.855Z,10.07
2017-12-21T08:28:11.590Z,10.90
2017-12-21T08:30:39.196Z,10.97
2017-12-21T08:33:07.119Z,11.50
2017-12-21T08:35:34.626Z,9.33
2017-12-21T08:38:02.285Z,8.20
2017-12-21T08:40:29.779Z,7.80
2017-12-21T08:42:57.543Z,10.97
2017-12-21T08:45:25.048Z,7.40
2017-12-21T08:47:52.552Z,9.10
2017-12-21T08:50:20.184Z,7.23
2017-12-21T08:52:48.481Z,7.83
2017-12-21T08:55:16.052Z,6.63
2017-12-21T08:57:43.560Z,6.90
2017-12-21T09:00:11.578Z,7.77
2017-12-21T09:02:39.651Z,7.00
2017-12-21T09:05:07.143Z,8.30
2017-12-21T09:07:34.874Z,7.80
2017-12-21T09:10:02.364Z,8.70
2017-12-21T09:12:29.866Z,8.87
2017-12-21T09:14:57.581Z,7.03
2017-12-21T09:17:25.307Z,7.60
2017-12-21T09:19:53.207Z,8.57
2017-12-21T09:22:20.715Z,8.47
2017-12-21T09:24:48.828Z,8.73
2017-12-21T09:27:17.088Z,7.57
2017-12-21T09:29:45.359Z,7.77
2017-12-21T09:32:13.085Z,8.03
2017-12-21T09:34:41.196Z,7.97
2017-12-21T09:37:08.960Z,8.63
2017-12-21T09:39:36.463Z,8.00
2017-12-21T09:42:04.140Z,8.90
2017-12-21T09:44:32.571Z,7.80
2017-12-21T09:47:00.060Z,7.90
2017-12-21T09:49:27.776Z,7.50
2017-12-21T09:51:56.176Z,7.60
2017-12-21T09:54:23.695Z,7.60
2017-12-21T09:56:51.367Z,8.00
2017-12-21T09:59:19.136Z,7.33
2017-12-21T10:01:46.643Z,8.30
2017-12-21T10:04:14.144Z,7.87
2017-12-21T10:06:41.674Z,6.30
2017-12-21T10:09:09.185Z,8.17
2017-12-21T10:11:38.263Z,6.90
2017-12-21T10:14:06.824Z,7.47
2017-12-21T10:16:34.407Z,7.23
2017-12-21T10:19:02.165Z,7.10
2017-12-21T10:21:29.764Z,7.40
2017-12-21T10:23:58.024Z,6.00
2017-12-21T10:26:25.767Z,6.97
2017-12-21T10:28:53.404Z,5.43
2017-12-21T10:31:21.292Z,6.40
2017-12-21T10:33:49.359Z,5.67
2017-12-21T10:36:17.772Z,5.50
2017-12-21T10:38:45.504Z,5.70
2017-12-21T10:41:13.470Z,5.80
2017-12-21T10:43:40.967Z,5.60
2017-12-21T10:46:08.475Z,5.10
2017-12-21T10:48:37.500Z,4.30
2017-12-21T10:51:05.428Z,4.77
2017-12-21T10:53:32.972Z,4.80
2017-12-21T10:56:00.480Z,4.97
2017-12-21T10:58:27.972Z,4.20
2017-12-21T11:00:56.482Z,3.87
2017-12-21T11:03:24.347Z,3.70
2017-12-21T11:05:51.840Z,4.60
2017-12-21T11:08:19.341Z,4.07
2017-12-21T11:10:47.056Z,5.20
2017-12-21T11:13:14.821Z,4.17
2017-12-21T11:15:42.576Z,5.10
2017-12-21T11:18:10.081Z,4.60
2017-12-21T11:20:37.575Z,4.53
2017-12-21T11:23:05.291Z,3.10
2017-12-21T11:25:32.786Z,2.63
2017-12-21T11:28:01.400Z,3.77
2017-12-21T11:30:29.657Z,4.00
2017-12-21T11:32:57.155Z,3.53
2017-12-21T11:35:24.679Z,3.10
2017-12-21T11:37:52.443Z,3.70
2017-12-21T11:40:20.348Z,4.03
2017-12-21T11:42:48.655Z,4.60
2017-12-21T11:45:16.351Z,4.97
2017-12-21T11:47:44.115Z,3.70
2017-12-21T11:50:11.615Z,4.67
2017-12-21T11:52:39.130Z,4.93
2017-12-21T11:55:06.730Z,5.03
2017-12-21T11:57:34.233Z,5.53
2017-12-21T12:00:01.725Z,5.40
2017-12-21T12:02:29.838Z,6.17
2017-12-21T12:04:57.763Z,6.50
2017-12-21T12:07:25.267Z,7.03
2017-12-21T12:09:52.778Z,6.53
2017-12-21T12:12:20.526Z,6.57
2017-12-21T12:14:48.023Z,7.27
2017-12-21T12:17:15.740Z,7.20
2017-12-21T12:19:43.459Z,5.53
2017-12-21T12:22:12.387Z,6.10
2017-12-21T12:24:40.291Z,6.27
2017-12-21T12:27:08.014Z,7.77
2017-12-21T12:29:35.546Z,5.53
2017-12-21T12:32:03.041Z,6.50
2017-12-21T12:34:31.316Z,6.83
2017-12-21T12:36:59.084Z,5.90
2017-12-21T12:39:26.849Z,8.27
2017-12-21T12:41:54.607Z,8.83
2017-12-21T12:44:22.371Z,9.17
2017-12-21T12:46:49.880Z,10.23
2017-12-21T12:49:17.883Z,11.87
2017-12-21T12:51:45.384Z,13.20
2017-12-21T12:54:13.036Z,12.73
2017-12-21T12:56:40.577Z,12.20
2017-12-21T12:59:08.378Z,11.83
2017-12-21T13:01:35.839Z,11.63
2017-12-21T13:04:03.524Z,10.27
2017-12-21T13:06:31.031Z,10.47
2017-12-21T13:08:59.089Z,8.73
2017-12-21T13:11:26.591Z,7.93
2017-12-21T13:13:54.308Z,9.17
2017-12-21T13:16:21.812Z,7.70
2017-12-21T13:18:49.339Z,7.10
2017-12-21T13:21:16.989Z,7.10
2017-12-21T13:23:44.826Z,6.57
2017-12-21T13:26:12.520Z,5.43
2017-12-21T13:28:40.622Z,5.47
2017-12-21T13:31:08.131Z,4.87
2017-12-21T13:33:35.800Z,5.50
2017-12-21T13:36:03.309Z,4.93
2017-12-21T13:38:30.812Z,5.50
2017-12-21T13:40:58.749Z,5.23
2017-12-21T13:43:26.855Z,5.53
2017-12-21T13:45:54.363Z,5.37
2017-12-21T13:48:21.858Z,4.93
2017-12-21T13:50:49.527Z,5.97
2017-12-21T13:53:17.296Z,5.27
2017-12-21T13:55:45.056Z,5.50
2017-12-21T13:58:13.466Z,5.80
2017-12-21T14:00:41.215Z,5.40
2017-12-21T14:03:08.965Z,4.43
2017-12-21T14:05:36.827Z,5.10
2017-12-21T14:08:04.488Z,5.47
2017-12-21T14:10:31.995Z,5.30
2017-12-21T14:13:00.264Z,4.47
2017-12-21T14:15:27.775Z,3.50
2017-12-21T14:17:55.281Z,3.63
2017-12-21T14:20:23.192Z,3.33
2017-12-21T14:22:51.643Z,3.60
2017-12-21T14:25:20.032Z,3.93
2017-12-21T14:27:47.540Z,4.50
2017-12-21T14:30:15.638Z,4.73
2017-12-21T14:32:43.972Z,4.27
2017-12-21T14:35:12.328Z,3.70
2017-12-21T14:37:39.832Z,3.70
2017-12-21T14:40:07.777Z,4.07
2017-12-21T14:42:35.983Z,4.37
2017-12-21T14:45:04.027Z,3.70
2017-12-21T14:47:32.054Z,3.47
2017-12-21T14:49:59.546Z,4.27
2017-12-21T14:52:27.050Z,3.60
2017-12-21T14:54:54.552Z,3.73
2017-12-21T14:57:22.053Z,3.30
2017-12-21T14:59:51.660Z,4.20
2017-12-21T15:02:20.207Z,4.30
2017-12-21T15:04:49.241Z,3.50
2017-12-21T15:07:17.576Z,3.90
2017-12-21T15:09:45.072Z,3.90
2017-12-21T15:12:12.772Z,3.60
2017-12-21T15:14:40.267Z,3.30
2017-12-21T15:17:08.015Z,3.67
2017-12-21T15:19:35.780Z,5.20
2017-12-21T15:22:03.278Z,4.53
2017-12-21T15:24:31.002Z,4.00
2017-12-21T15:26:58.763Z,4.20
2017-12-21T15:29:26.528Z,5.00
2017-12-21T15:31:54.025Z,4.37
2017-12-21T15:34:21.713Z,4.60
2017-12-21T15:36:49.204Z,4.90
2017-12-21T15:39:17.300Z,4.87
2017-12-21T15:41:44.805Z,4.40
2017-12-21T15:44:12.800Z,4.97
2017-12-21T15:46:40.295Z,5.63
2017-12-21T15:49:08.041Z,5.50
2017-12-21T15:51:35.552Z,4.70
2017-12-21T15:54:03.635Z,4.53
2017-12-21T15:56:31.312Z,2.90
2017-12-21T15:58:58.810Z,3.20
2017-12-21T16:01:26.536Z,3.20
2017-12-21T16:03:54.031Z,3.67
2017-12-21T16:06:21.640Z,5.10
2017-12-21T16:08:49.172Z,4.40
2017-12-21T16:11:16.664Z,3.83
2017-12-21T16:13:44.655Z,5.10
2017-12-21T16:16:12.169Z,4.20
2017-12-21T16:18:39.659Z,4.90
2017-12-21T16:21:07.170Z,4.10
2017-12-21T16:23:35.635Z,5.13
2017-12-21T16:26:04.476Z,5.97
2017-12-21T16:28:32.438Z,5.87
2017-12-21T16:31:00.020Z,7.00
2017-12-21T16:33:27.771Z,6.23
2017-12-21T16:35:55.531Z,7.03
2017-12-21T16:38:23.036Z,7.43
2017-12-21T16:40:50.659Z,5.53
2017-12-21T16:43:18.156Z,6.37
2017-12-21T16:45:46.060Z,6.90
2017-12-21T16:48:13.579Z,6.80
2017-12-21T16:50:42.743Z,7.27
2017-12-21T16:53:10.495Z,8.40
2017-12-21T16:55:38.019Z,7.20
2017-12-21T16:58:05.667Z,6.30
2017-12-21T17:00:33.482Z,6.07
2017-12-21T17:03:00.984Z,6.20
2017-12-21T17:05:28.688Z,6.33
2017-12-21T17:07:56.196Z,5.27
2017-12-21T17:10:23.695Z,5.40
2017-12-21T17:12:51.340Z,5.70
2017-12-21T17:15:19.436Z,4.90
2017-12-21T17:17:47.211Z,4.30
2017-12-21T17:20:14.976Z,4.63
2017-12-21T17:22:42.489Z,5.07
2017-12-21T17:25:10.159Z,4.00
2017-12-21T17:27:39.511Z,4.23
2017-12-21T17:30:07.004Z,3.63
2017-12-21T17:32:34.714Z,4.30
2017-12-21T17:35:02.476Z,4.87
2017-12-21T17:37:30.236Z,4.50
2017-12-21T17:39:57.730Z,3.90
2017-12-21T17:42:25.240Z,4.37
2017-12-21T17:44:52.882Z,3.60
2017-12-21T17:47:21.594Z,3.97
2017-12-21T17:49:49.191Z,5.10
2017-12-21T17:52:17.731Z,3.80
2017-12-21T17:54:45.228Z,2.67
2017-12-21T17:57:12.960Z,4.23
2017-12-21T17:59:40.727Z,3.63
2017-12-21T18:02:08.488Z,4.53
2017-12-21T18:04:36.243Z,4.33
2017-12-21T18:07:03.762Z,4.00
2017-12-21T18:09:31.267Z,4.60
2017-12-21T18:11:58.897Z,4.90
2017-12-21T18:14:27.316Z,4.63
2017-12-21T18:16:55.376Z,4.63
2017-12-21T18:19:22.879Z,3.90
2017-12-21T18:21:50.558Z,5.00
2017-12-21T18:24:18.692Z,4.30
2017-12-21T18:26:47.695Z,4.70
2017-12-21T18:29:15.426Z,4.70
2017-12-21T18:31:43.054Z,4.43
2017-12-21T18:34:10.553Z,4.37
2017-12-21T18:36:38.101Z,6.17
2017-12-21T18:39:06.108Z,5.43
2017-12-21T18:41:33.604Z,5.27
2017-12-21T18:44:01.108Z,5.70
2017-12-21T18:46:28.839Z,5.93
2017-12-21T18:48:56.448Z,4.83
2017-12-21T18:51:24.367Z,5.50
2017-12-21T18:53:52.438Z,6.03
2017-12-21T18:56:20.588Z,5.27
2017-12-21T18:58:48.080Z,5.73
2017-12-21T19:01:15.583Z,7.10
2017-12-21T19:03:43.488Z,6.13
2017-12-21T19:06:10.987Z,5.97
2017-12-21T19:08:38.487Z,6.80
2017-12-21T19:11:05.987Z,6.67
2017-12-21T19:13:33.631Z,6.70
2017-12-21T19:16:01.540Z,6.97
2017-12-21T19:18:29.820Z,6.20
2017-12-21T19:20:57.326Z,6.00
2017-12-21T19:23:25.309Z,6.00
2017-12-21T19:25:52.799Z,5.70
2017-12-21T19:28:20.515Z,6.10
2017-12-21T19:30:48.975Z,5.73
2017-12-21T19:33:17.611Z,4.63
2017-12-21T19:35:46.565Z,6.40
2017-12-21T19:38:14.952Z,5.30
2017-12-21T19:40:42.847Z,5.53
2017-12-21T19:43:10.496Z,6.47
2017-12-21T19:45:38.019Z,6.00
2017-12-21T19:48:05.704Z,6.00
2017-12-21T19:50:33.200Z,6.53
2017-12-21T19:53:00.891Z,10.27
2017-12-21T19:55:28.696Z,6.27
2017-12-21T19:57:56.593Z,7.47
2017-12-21T20:00:25.135Z,7.20
2017-12-21T20:02:52.673Z,7.40
2017-12-21T20:05:20.964Z,7.70
2017-12-21T20:07:48.727Z,6.90
2017-12-21T20:10:16.487Z,7.20
2017-12-21T20:12:44.002Z,8.60
2017-12-21T20:15:11.512Z,8.70
2017-12-21T20:17:39.174Z,6.67
2017-12-21T20:20:06.771Z,7.60
2017-12-21T20:22:35.084Z,8.27
2017-12-21T20:25:03.722Z,6.47
2017-12-21T20:27:31.226Z,7.60
2017-12-21T20:29:58.989Z,8.77
2017-12-21T20:32:26.684Z,8.33
2017-12-21T20:34:54.447Z,7.17
2017-12-21T20:37:22.201Z,8.30
2017-12-21T20:39:50.280Z,9.33
2017-12-21T20:42:17.805Z,8.83
2017-12-21T20:44:45.487Z,10.47
2017-12-21T20:47:13.563Z,9.20
2017-12-21T20:49:41.732Z,9.63
2017-12-21T20:52:09.712Z,9.80
2017-12-21T20:54:37.243Z,9.80
2017-12-21T20:57:04.727Z,10.30
2017-12-21T20:59:32.292Z,9.47
2017-12-21T21:01:59.831Z,13.27
2017-12-21T21:04:27.604Z,10.03
2017-12-21T21:06:55.495Z,11.03
2017-12-21T21:09:23.011Z,12.60
2017-12-21T21:11:50.511Z,10.77
2017-12-21T21:14:18.792Z,12.73
2017-12-21T21:16:46.719Z,12.60
2017-12-21T21:19:14.545Z,13.33
2017-12-21T21:21:41.989Z,13.70
2017-12-21T21:24:09.905Z,15.67
2017-12-21T21:26:38.365Z,13.70
2017-12-21T21:29:06.272Z,14.30
2017-12-21T21:31:35.106Z,13.57
2017-12-21T21:34:02.581Z,15.27
2017-12-21T21:36:30.487Z,17.73
2017-12-21T21:38:58.130Z,17.50
2017-12-21T21:41:27.356Z,16.60
2017-12-21T21:43:55.808Z,15.73
2017-12-21T21:46:23.367Z,16.27
2017-12-21T21:48:51.028Z,19.90
2017-12-21T21:51:18.869Z,20.30
2017-12-21T21:53:46.471Z,21.10
2017-12-21T21:56:14.503Z,20.67
2017-12-21T21:58:42.391Z,20.30
2017-12-21T22:01:09.904Z,18.77
2017-12-21T22:03:37.404Z,19.90
2017-12-21T22:06:05.371Z,20.60
2017-12-21T22:08:34.060Z,21.17
2017-12-21T22:11:01.564Z,20.00
2017-12-21T22:13:29.295Z,21.00
2017-12-21T22:15:57.573Z,20.77
2017-12-21T22:18:25.088Z,22.90
2017-12-21T22:20:53.097Z,21.70
2017-12-21T22:23:20.620Z,22.97
2017-12-21T22:25:48.127Z,23.97
2017-12-21T22:28:15.635Z,21.47
2017-12-21T22:30:43.135Z,25.17
2017-12-21T22:33:10.652Z,23.50
2017-12-21T22:35:39.151Z,22.77
2017-12-21T22:38:06.652Z,23.63
2017-12-21T22:40:34.155Z,24.37
2017-12-21T22:43:01.740Z,25.17
2017-12-21T22:45:29.248Z,25.77
2017-12-21T22:47:56.752Z,27.40
2017-12-21T22:50:24.248Z,28.03
2017-12-21T22:52:51.867Z,24.20
2017-12-21T22:55:19.372Z,26.50
2017-12-21T22:57:48.407Z,24.20
2017-12-21T23:00:24.779Z,27.83
2017-12-21T23:02:52.288Z,24.93
2017-12-21T23:05:19.796Z,25.80
2017-12-21T23:07:47.740Z,28.40
2017-12-21T23:10:15.808Z,29.77
2017-12-21T23:12:43.315Z,27.90
2017-12-21T23:15:11.052Z,26.33
2017-12-21T23:17:39.331Z,25.63
2017-12-21T23:20:06.844Z,27.70
2017-12-21T23:22:34.356Z,27.63
2017-12-21T23:25:01.899Z,24.97
2017-12-21T23:27:29.580Z,26.30
2017-12-21T23:29:57.102Z,26.70
2017-12-21T23:32:25.119Z,28.40
2017-12-21T23:34:53.467Z,28.53
2017-12-21T23:37:21.107Z,27.83
2017-12-21T23:39:48.598Z,26.50
2017-12-21T23:42:17.372Z,24.00
2017-12-21T23:44:45.547Z,24.87
2017-12-21T23:47:13.052Z,22.43
2017-12-21T23:49:41.604Z,22.40
2017-12-21T23:52:09.496Z,23.27
2017-12-21T23:54:37.772Z,27.47
2017-12-21T23:57:05.270Z,28.23
2017-12-21T23:59:32.776Z,25.53
